Albert, New Mexico
Current Conditions -  °F | °C
As of 5:53 PM on Sunday 21 Dec 2014 (Local Time) from KTCC Reporting Station
Clear Clear  
Wind Chill: 12°   Ceiling: Unl
Heat Index: 12°   Visibility: 10mi
Dew Point: -3°   Wind: 23mph
Humidity: 34%   Direction: 260°W
Pressure: 29.6"   Gusts: NA
Location:  35.7181°N, 103.591°W
Report Text: KTCC 220053Z AUTO 26020KT 10SM CLR 12/M03 A2960 RMK AO2 PK WND 26026/0049 SLP008 T01221033
Loading
Personal Weather Stations






























Interactive Weather Map New forecast layout! Learn more

10-Day Weather Forecast

Advertisements
Track Severe Weather on mobile